Time;durP1;ratioP1;P1;durP2;ratioP2;P2;SDS_P1;SDS_P2;PMS_P1;PMS_P2;Temp;Humidity;BMP_temperature;BMP_pressure;BME280_temperature;BME280_humidity;BME280_pressure;Samples;Min_cycle;Max_cycle;Signal;HPM_P1;HPM_P2
2022/06/16 00:00:40;;;;;;;12.00;8.67;;;;;;;;;;4975799;28;20462;-92
2022/06/16 00:03:09;;;;;;;6.47;5.87;;;;;;;;;;4957268;28;20435;-92
2022/06/16 00:05:36;;;;;;;6.87;6.30;;;;;;;;;;5012918;28;20477;-92
2022/06/16 00:08:05;;;;;;;5.50;5.03;;;;;;;;;;4997328;28;20428;-92
2022/06/16 00:10:31;;;;;;;5.70;5.20;;;;;;;;;;5538471;23;20484;-94
2022/06/16 00:13:00;;;;;;;6.00;5.10;;;;;;;;;;5018912;28;20424;-95
2022/06/16 00:41:33;;;;;;;5.97;5.47;;;18.60;94.00;;;;;;5015655;28;20492;-93
2022/06/16 00:44:02;;;;;;;4.90;4.60;;;;;;;;;;4981354;28;20445;-92
2022/06/16 00:46:50;;;;;;;5.40;5.20;;;;;;;;;;5000250;28;20432;-92
2022/06/16 00:49:19;;;;;;;5.63;5.20;;;;;;;;;;4980664;28;20425;-94
2022/06/16 00:52:11;;;;;;;6.47;5.97;;;18.60;96.00;;;;;;5036292;28;20424;-92
2022/06/16 00:54:42;;;;;;;5.60;5.30;;;;;;;;;;4991510;28;20492;-92
2022/06/16 00:57:19;;;;;;;9.37;5.80;;;18.40;97.10;;;;;;5020848;28;20455;-93
2022/06/16 00:59:46;;;;;;;5.63;5.23;;;;;;;;;;4981534;28;20724;-91
2022/06/16 01:02:17;;;;;;;5.90;5.40;;;;;;;;;;5037313;28;20432;-92
2022/06/16 01:04:51;;;;;;;6.43;5.87;;;;;;;;;;4981613;28;20828;-92
2022/06/16 01:07:34;;;;;;;5.43;5.20;;;18.20;98.30;;;;;;5035548;28;20497;-94
2022/06/16 01:10:00;;;;;;;5.10;4.70;;;;;;;;;;5010892;28;20435;-92
2022/06/16 01:19:09;;;;;;;6.73;5.93;;;18.00;95.70;;;;;;5070929;22;20470;-92
2022/06/16 01:21:52;;;;;;;5.60;5.30;;;18.00;98.60;;;;;;4993041;28;20585;-92
2022/06/16 01:24:49;;;;;;;5.60;5.10;;;17.90;95.60;;;;;;4999219;28;20491;-92
2022/06/16 01:30:04;;;;;;;6.03;5.57;;;18.10;98.20;;;;;;5142764;22;20506;-92
2022/06/16 01:33:01;;;;;;;5.60;5.20;;;17.90;97.90;;;;;;4975512;28;20438;-91
2022/06/16 01:35:45;;;;;;;6.90;5.40;;;17.90;98.80;;;;;;4992307;28;20449;-92
2022/06/16 01:38:31;;;;;;;5.37;5.17;;;17.90;98.60;;;;;;5001204;28;20459;-93
2022/06/16 01:41:04;;;;;;;5.80;5.40;;;;;;;;;;5215373;23;20470;-91
2022/06/16 01:43:55;;;;;;;6.40;5.80;;;17.80;98.00;;;;;;4977136;28;20418;-92
2022/06/16 01:49:03;;;;;;;6.30;5.90;;;17.70;97.90;;;;;;2166388;22;20490;-92
2022/06/16 01:51:42;;;;;;;5.80;5.50;;;17.70;98.10;;;;;;4978732;28;20423;-93
2022/06/16 01:54:49;;;;;;;6.43;6.00;;;17.70;98.10;;;;;;4979508;28;20436;-92
2022/06/16 01:57:22;;;;;;;6.13;5.27;;;17.70;98.10;;;;;;4981594;28;20430;-93
2022/06/16 02:00:09;;;;;;;6.63;5.80;;;17.50;97.80;;;;;;4993698;28;20464;-93
2022/06/16 02:02:48;;;;;;;6.53;5.90;;;17.70;94.90;;;;;;4970404;28;20654;-91
2022/06/16 02:05:36;;;;;;;5.30;5.10;;;17.70;94.90;;;;;;4977038;28;20457;-92
2022/06/16 02:08:17;;;;;;;5.47;5.17;;;17.70;96.80;;;;;;4971287;28;20501;-92
2022/06/16 02:10:57;;;;;;;7.67;6.30;;;17.70;96.30;;;;;;4970572;28;20437;-92
2022/06/16 02:13:38;;;;;;;6.23;5.40;;;17.70;93.40;;;;;;4971162;28;20500;-93
2022/06/16 02:16:16;;;;;;;6.20;5.80;;;17.60;95.40;;;;;;4982382;28;20425;-92
2022/06/16 02:18:42;;;;;;;6.50;5.40;;;;;;;;;;4972656;28;20441;-92
2022/06/16 02:21:15;;;;;;;5.17;4.87;;;17.50;95.50;;;;;;4996110;28;20838;-93
2022/06/16 02:23:41;;;;;;;5.53;5.03;;;;;;;;;;4980188;28;20429;-91
2022/06/16 02:26:10;;;;;;;5.90;5.50;;;;;;;;;;4973709;28;20524;-92
2022/06/16 02:28:48;;;;;;;6.80;6.30;;;17.20;96.90;;;;;;4993562;28;20487;-91
2022/06/16 02:31:25;;;;;;;6.07;5.87;;;;;;;;;;5014518;28;20397;-93
2022/06/16 02:34:16;;;;;;;9.80;5.20;;;17.30;94.70;;;;;;4993156;28;20458;-93
2022/06/16 02:36:50;;;;;;;5.83;5.33;;;;;;;;;;5013363;28;20416;-92
2022/06/16 02:39:26;;;;;;;5.80;5.10;;;17.20;98.90;;;;;;4957108;28;20506;-93
2022/06/16 02:42:39;;;;;;;4.97;4.57;;;17.10;92.40;;;;;;4958098;29;20452;-92
2022/06/16 02:45:32;;;;;;;5.10;4.90;;;17.10;86.70;;;;;;4986409;28;20978;-94
2022/06/16 02:48:38;;;;;;;5.67;5.30;;;17.20;93.20;;;;;;5008676;28;20400;-92
2022/06/16 02:51:13;;;;;;;6.43;5.30;;;17.10;95.80;;;;;;4994942;28;20443;-94
2022/06/16 02:56:30;;;;;;;4.80;4.20;;;;;;;;;;4969822;29;20461;-93
2022/06/16 02:59:02;;;;;;;5.63;5.17;;;17.10;95.50;;;;;;4991495;28;20429;-93
2022/06/16 03:01:43;;;;;;;5.43;5.10;;;;;;;;;;4988238;28;20455;-93
2022/06/16 03:12:08;;;;;;;5.03;4.83;;;;;;;;;;5088692;22;20493;-92
2022/06/16 03:17:17;;;;;;;5.30;4.90;;;16.80;96.20;;;;;;5023150;23;20471;-94
2022/06/16 03:19:44;;;;;;;6.20;5.60;;;;;;;;;;4996076;28;20444;-94
2022/06/16 03:22:10;;;;;;;4.60;4.40;;;;;;;;;;5031879;28;20452;-92
2022/06/16 03:24:39;;;;;;;6.33;5.43;;;;;;;;;;5152674;22;20475;-93
2022/06/16 03:27:06;;;;;;;4.83;4.50;;;;;;;;;;4993171;28;20447;-93
2022/06/16 03:29:32;;;;;;;6.23;4.80;;;;;;;;;;4993991;28;20440;-91
2022/06/16 03:31:58;;;;;;;5.13;4.83;;;;;;;;;;5142334;22;20545;-92
2022/06/16 03:55:17;;;;;;;5.33;4.93;;;;;;;;;;6039080;23;20508;-96
2022/06/16 04:16:11;;;;;;;6.17;4.10;;;;;;;;;;5382663;23;20459;-94
2022/06/16 04:18:42;;;;;;;4.97;4.67;;;;;;;;;;5033327;28;20439;-96
2022/06/16 04:39:18;;;;;;;4.83;4.53;;;;;;;;;;3996321;23;20589;-90
2022/06/16 04:41:50;;;;;;;5.10;4.50;;;;;;;;;;4641365;28;10001872;-91
2022/06/16 04:44:16;;;;;;;4.23;3.73;;;;;;;;;;4963831;28;20447;-87
2022/06/16 04:46:42;;;;;;;3.77;3.67;;;;;;;;;;4969930;28;20443;-88
2022/06/16 04:49:09;;;;;;;4.13;3.93;;;;;;;;;;4979213;28;20432;-89
2022/06/16 04:51:38;;;;;;;4.10;3.80;;;;;;;;;;4989360;28;20440;-87
2022/06/16 04:54:04;;;;;;;5.00;4.50;;;;;;;;;;4972456;28;20439;-88
2022/06/16 04:56:31;;;;;;;5.40;4.03;;;;;;;;;;4971475;28;20543;-88
2022/06/16 04:58:57;;;;;;;4.07;3.77;;;;;;;;;;4976361;28;20530;-89
2022/06/16 05:01:23;;;;;;;5.13;4.00;;;;;;;;;;4974192;28;20464;-88
2022/06/16 05:03:49;;;;;;;4.57;4.40;;;;;;;;;;4970980;28;20498;-88
2022/06/16 05:06:15;;;;;;;3.93;3.83;;;;;;;;;;4973557;28;20451;-89
2022/06/16 05:08:41;;;;;;;4.50;4.40;;;;;;;;;;4973365;28;20444;-87
2022/06/16 05:11:07;;;;;;;5.50;4.43;;;;;;;;;;4982229;28;20433;-88
2022/06/16 05:13:34;;;;;;;4.87;4.23;;;;;;;;;;4973425;28;20867;-89
2022/06/16 05:16:00;;;;;;;3.90;3.90;;;;;;;;;;4977207;28;20802;-88
2022/06/16 05:18:26;;;;;;;4.10;3.80;;;;;;;;;;4973793;28;20432;-87
2022/06/16 05:20:52;;;;;;;4.10;4.00;;;;;;;;;;4975901;28;20869;-89
2022/06/16 05:23:18;;;;;;;4.70;4.23;;;;;;;;;;4984869;28;20436;-88
2022/06/16 05:25:44;;;;;;;4.00;3.80;;;;;;;;;;4985695;28;20464;-88
2022/06/16 05:28:10;;;;;;;3.70;3.60;;;;;;;;;;4984074;28;20490;-88
2022/06/16 05:30:37;;;;;;;3.80;3.70;;;;;;;;;;4976476;28;20452;-88
2022/06/16 05:33:04;;;;;;;3.33;3.23;;;;;;;;;;4987545;28;20439;-88
2022/06/16 05:35:31;;;;;;;5.73;3.93;;;;;;;;;;4976892;28;20508;-88
2022/06/16 05:37:58;;;;;;;3.67;3.57;;;;;;;;;;4997075;28;20412;-88
2022/06/16 05:40:25;;;;;;;3.90;3.60;;;;;;;;;;4989391;28;20530;-88
2022/06/16 05:42:50;;;;;;;3.60;3.40;;;;;;;;;;5015400;28;20439;-87
2022/06/16 05:45:17;;;;;;;3.47;3.27;;;;;;;;;;5022276;28;20427;-88
2022/06/16 05:47:44;;;;;;;3.47;3.27;;;;;;;;;;5022695;28;20435;-88
2022/06/16 05:50:10;;;;;;;3.23;3.13;;;;;;;;;;5003019;28;20439;-88
2022/06/16 05:52:36;;;;;;;3.30;3.10;;;;;;;;;;5025780;28;20418;-88
2022/06/16 05:55:02;;;;;;;3.77;3.53;;;;;;;;;;5002281;28;20455;-89
2022/06/16 05:57:28;;;;;;;3.03;2.83;;;;;;;;;;5013769;28;20438;-88
2022/06/16 05:59:54;;;;;;;3.90;3.70;;;;;;;;;;5015363;28;20436;-88
2022/06/16 06:02:20;;;;;;;3.40;3.30;;;;;;;;;;5012509;28;20737;-88
2022/06/16 06:04:48;;;;;;;3.63;3.53;;;;;;;;;;4998639;28;20803;-88
2022/06/16 06:07:21;;;;;;;3.20;3.00;;;;;;;;;;5012465;28;20786;-88
2022/06/16 06:18:41;;;;;;;3.23;3.13;;;;;;;;;;4975971;28;20973;-89
2022/06/16 06:21:07;;;;;;;3.67;3.37;;;;;;;;;;5010175;28;20550;-89
2022/06/16 06:23:33;;;;;;;3.53;3.17;;;;;;;;;;5006394;28;20873;-89
2022/06/16 06:25:59;;;;;;;3.30;3.13;;;;;;;;;;5012105;28;20419;-89
2022/06/16 06:28:25;;;;;;;3.00;3.00;;;;;;;;;;5028797;28;20419;-89
2022/06/16 06:30:51;;;;;;;2.93;2.83;;;;;;;;;;5012811;28;20403;-89
2022/06/16 06:33:17;;;;;;;3.17;2.93;;;;;;;;;;5010424;28;20948;-89
2022/06/16 06:35:54;;;;;;;3.43;3.23;;;;;;;;;;5013399;28;20476;-90
2022/06/16 06:38:20;;;;;;;3.23;3.13;;;;;;;;;;4993742;28;20432;-89
2022/06/16 06:40:46;;;;;;;4.43;2.73;;;;;;;;;;5020563;28;20455;-88
2022/06/16 06:43:15;;;;;;;2.47;2.47;;;;;;;;;;5016088;28;20423;-88
2022/06/16 06:45:41;;;;;;;3.60;3.40;;;;;;;;;;5020947;28;20446;-87
2022/06/16 06:48:10;;;;;;;3.13;2.93;;;;;;;;;;5033020;28;20414;-89
2022/06/16 06:50:38;;;;;;;3.40;3.23;;;;;;;;;;5006575;28;20432;-89
2022/06/16 06:53:05;;;;;;;3.93;3.40;;;;;;;;;;5013157;28;20412;-88
2022/06/16 06:55:32;;;;;;;3.73;3.37;;;;;;;;;;5013094;28;20435;-88
2022/06/16 06:57:58;;;;;;;3.37;3.17;;;;;;;;;;5015234;28;20416;-88
2022/06/16 07:00:25;;;;;;;3.40;3.10;;;22.70;77.30;;;;;;5025761;28;20594;-89
2022/06/16 07:02:52;;;;;;;3.20;3.00;;;;;;;;;;4994389;28;20419;-88
2022/06/16 07:05:18;;;;;;;2.50;2.50;;;;;;;;;;5012659;28;20438;-88
2022/06/16 07:07:56;;;;;;;2.90;2.80;;;;;;;;;;5013971;28;20985;-88
2022/06/16 07:10:22;;;;;;;3.17;3.07;;;;;;;;;;4999307;28;21007;-89
2022/06/16 07:12:48;;;;;;;2.63;2.53;;;;;;;;;;5031910;28;20466;-88
2022/06/16 07:15:14;;;;;;;2.27;2.17;;;;;;;;;;5030200;28;20462;-88
2022/06/16 07:17:41;;;;;;;3.23;3.03;;;;;;;;;;5030252;28;20960;-89
2022/06/16 07:20:15;;;;;;;3.87;3.67;;;;;;;;;;5010714;28;20513;-89
2022/06/16 07:22:42;;;;;;;3.10;2.70;;;;;;;;;;5014711;28;20441;-88
2022/06/16 07:25:08;;;;;;;3.07;2.67;;;;;;;;;;5028180;28;20407;-90
2022/06/16 07:27:34;;;;;;;3.10;2.87;;;;;;;;;;5006243;28;20610;-89
2022/06/16 07:30:00;;;;;;;2.43;2.23;;;;;;;;;;4998606;28;20577;-88
2022/06/16 07:32:39;;;;;;;3.63;3.40;;;;;;;;;;4999101;28;20447;-89
2022/06/16 07:35:05;;;;;;;2.58;2.45;;;;;;;;;;4655498;28;10000246;-91
2022/06/16 07:37:37;;;;;;;2.80;2.60;;;;;;;;;;4995171;28;20188;-89
2022/06/16 07:40:05;;;;;;;2.67;2.57;;;;;;;;;;5016321;28;20447;-91
2022/06/16 07:42:33;;;;;;;2.37;2.07;;;;;;;;;;5020438;28;20551;-90
2022/06/16 07:45:11;;;;;;;2.20;2.20;;;;;;;;;;4994641;28;20479;-90
2022/06/16 07:48:03;;;;;;;2.00;2.00;;;;;;;;;;5004448;28;20519;-92
2022/06/16 07:50:30;;;;;;;2.47;2.47;;;;;;;;;;5002777;28;20511;-92
2022/06/16 07:52:56;;;;;;;2.93;2.60;;;;;;;;;;5005238;28;20498;-91
2022/06/16 07:55:28;;;;;;;7.93;2.87;;;;;;;;;;5008659;28;20437;-92
2022/06/16 07:58:08;;;;;;;2.67;2.47;;;;;;;;;;5006808;28;20490;-92
2022/06/16 08:00:35;;;;;;;2.27;2.17;;;;;;;;;;5001276;28;20469;-91
2022/06/16 08:03:12;;;;;;;2.67;2.47;;;;;;;;;;5009487;28;20581;-91
2022/06/16 08:06:01;;;;;;;2.30;2.20;;;;;;;;;;5020385;28;20441;-91
2022/06/16 08:08:37;;;;;;;2.40;2.30;;;;;;;;;;4988648;28;20439;-92
2022/06/16 08:11:04;;;;;;;4.60;2.80;;;;;;;;;;5003127;28;20732;-92
2022/06/16 08:13:33;;;;;;;2.13;2.03;;;;;;;;;;5001842;28;20937;-90
2022/06/16 08:15:59;;;;;;;1.80;1.80;;;;;;;;;;4997444;28;20452;-90
2022/06/16 08:18:32;;;;;;;3.47;3.10;;;;;;;;;;5012835;28;20461;-90
2022/06/16 08:21:27;;;;;;;2.90;2.70;;;;;;;;;;5003336;28;20795;-92
2022/06/16 08:23:53;;;;;;;2.20;2.10;;;;;;;;;;5004618;28;20509;-90
2022/06/16 08:26:19;;;;;;;2.07;1.87;;;;;;;;;;5001950;28;20783;-90
2022/06/16 08:28:45;;;;;;;1.70;1.70;;;;;;;;;;5003268;28;20459;-90
2022/06/16 08:31:13;;;;;;;2.27;2.17;;;;;;;;;;5025881;28;20440;-90
2022/06/16 08:34:03;;;;;;;2.27;2.27;;;;;;;;;;5026020;28;20427;-90
2022/06/16 08:36:51;;;;;;;2.50;2.30;;;;;;;;;;5023997;28;20429;-92
2022/06/16 08:39:20;;;;;;;2.20;2.10;;;;;;;;;;5001573;28;20431;-92
2022/06/16 08:42:01;;;;;;;3.00;2.30;;;26.40;67.10;;;;;;5010245;28;20487;-90
2022/06/16 08:44:50;;;;;;;;;;;;;;;;;;;;;
2022/06/16 08:47:21;;;;;;;1.70;1.60;;;28.60;60.90;;;;;;4996283;28;20422;-91
2022/06/16 08:50:10;;;;;;;1.70;1.60;;;;;;;;;;5002684;28;20420;-91
2022/06/16 08:53:06;;;;;;;1.70;1.60;;;28.50;56.40;;;;;;5005847;28;20469;-93
2022/06/16 08:55:35;;;;;;;1.90;1.80;;;;;;;;;;4992320;28;20420;-91
2022/06/16 08:58:22;;;;;;;4.90;1.70;;;;;;;;;;5012532;28;20440;-93
2022/06/16 09:01:44;;;;;;;2.30;2.20;;;29.20;59.70;;;;;;5001102;28;20467;-93
2022/06/16 09:04:52;;;;;;;1.37;1.37;;;;;;;;;;4994124;28;20456;-92
2022/06/16 09:07:25;;;;;;;1.57;1.47;;;;;;;;;;4995400;28;20511;-94
2022/06/16 09:10:23;;;;;;;1.57;1.57;;;;;;;;;;5023007;28;20535;-93
2022/06/16 09:12:52;;;;;;;1.40;1.40;;;;;;;;;;5006811;28;20408;-93
2022/06/16 09:15:41;;;;;;;1.70;1.70;;;29.50;57.50;;;;;;5020932;28;20430;-93
2022/06/16 09:18:49;;;;;;;1.30;1.30;;;28.80;54.80;;;;;;5009558;28;21025;-93
2022/06/16 09:21:34;;;;;;;1.63;1.63;;;29.00;56.80;;;;;;5003659;28;20583;-93
2022/06/16 09:24:39;;;;;;;5.57;5.47;;;29.10;54.80;;;;;;5016303;28;20459;-93
2022/06/16 09:27:28;;;;;;;1.10;1.10;;;;;;;;;;5006414;28;20448;-92
2022/06/16 09:30:30;;;;;;;2.27;1.60;;;29.60;56.60;;;;;;4990779;28;20402;-94
2022/06/16 09:34:04;;;;;;;1.20;1.20;;;30.70;55.80;;;;;;5010685;28;20431;-92
2022/06/16 09:36:51;;;;;;;;;;;;;;;;;;;;;
2022/06/16 09:40:02;;;;;;;1.10;1.10;;;31.20;55.70;;;;;;5034751;28;20459;-94
2022/06/16 09:43:12;;;;;;;0.90;0.90;;;32.20;55.40;;;;;;4993411;28;20465;-92
2022/06/16 09:46:27;;;;;;;1.00;1.00;;;32.00;56.10;;;;;;4956127;28;20412;-92
2022/06/16 09:49:01;;;;;;;0.90;0.90;;;;;;;;;;4919781;28;20444;-93
2022/06/16 09:51:50;;;;;;;1.23;1.23;;;31.30;55.80;;;;;;4988200;28;20440;-93
2022/06/16 09:54:56;;;;;;;1.20;1.20;;;31.10;56.70;;;;;;4988551;28;20426;-91
2022/06/16 09:58:18;;;;;;;1.80;1.20;;;31.40;57.00;;;;;;5003260;28;20450;-92
2022/06/16 10:00:59;;;;;;;1.27;1.27;;;31.70;56.70;;;;;;4978724;28;20451;-93
2022/06/16 10:03:28;;;;;;;2.00;1.30;;;;;;;;;;4994703;28;20416;-89
2022/06/16 10:06:24;;;;;;;2.90;1.47;;;;;;;;;;4993316;28;20452;-91
2022/06/16 10:14:37;;;;;;;1.53;1.33;;;33.50;50.30;;;;;;3445938;22;20840;-92
2022/06/16 10:17:15;;;;;;;1.30;1.30;;;33.20;50.80;;;;;;5024540;28;20432;-92
2022/06/16 10:19:58;;;;;;;1.87;1.73;;;33.90;51.50;;;;;;4990420;28;20485;-90
2022/06/16 10:30:23;;;;;;;1.83;1.70;;;;;;;;;;5624892;22;20491;-90
2022/06/16 10:33:14;;;;;;;1.47;1.37;;;34.00;51.60;;;;;;5001945;28;20423;-91
2022/06/16 10:36:04;;;;;;;1.37;1.37;;;34.20;48.80;;;;;;4984403;28;20543;-89
2022/06/16 10:38:32;;;;;;;4.83;4.57;;;;;;;;;;4990258;28;20515;-90
2022/06/16 10:40:59;;;;;;;1.90;1.80;;;;;;;;;;4998360;28;20467;-91
2022/06/16 10:43:36;;;;;;;1.50;1.50;;;32.30;54.00;;;;;;5000139;28;20495;-89
2022/06/16 10:46:27;;;;;;;15.73;2.07;;;33.00;54.70;;;;;;4968254;28;20502;-94
2022/06/16 10:48:55;;;;;;;1.70;1.60;;;32.60;54.10;;;;;;4979780;28;20421;-93
2022/06/16 10:51:24;;;;;;;1.70;1.70;;;33.20;54.50;;;;;;4990888;28;20463;-91
2022/06/16 10:54:15;;;;;;;2.07;2.07;;;33.30;52.20;;;;;;4996437;28;20593;-92
2022/06/16 10:56:47;;;;;;;1.90;1.90;;;33.20;54.70;;;;;;5000330;28;20447;-91
2022/06/16 10:59:15;;;;;;;1.70;1.70;;;;;;;;;;4995643;28;20447;-91
2022/06/16 11:01:48;;;;;;;1.60;1.60;;;;;;;;;;4983679;28;20889;-88
2022/06/16 11:04:26;;;;;;;1.70;1.70;;;31.50;54.30;;;;;;5000440;28;21053;-91
2022/06/16 11:06:59;;;;;;;1.97;1.97;;;;;;;;;;4978215;28;20479;-92
2022/06/16 11:09:28;;;;;;;2.27;1.80;;;31.10;56.90;;;;;;4985130;28;20456;-92
2022/06/16 11:12:02;;;;;;;1.80;1.70;;;;;;;;;;4987625;28;20463;-93
2022/06/16 11:14:36;;;;;;;2.97;2.90;;;;;;;;;;4996141;28;20450;-89
2022/06/16 11:17:22;;;;;;;2.13;2.13;;;;;;;;;;4986916;28;20804;-91
2022/06/16 11:20:01;;;;;;;2.30;2.10;;;;;;;;;;4990011;28;20503;-90
2022/06/16 11:22:34;;;;;;;2.23;2.13;;;;;;;;;;4966780;28;20465;-90
2022/06/16 11:25:05;;;;;;;6.17;2.30;;;32.80;56.10;;;;;;4971256;28;20488;-89
2022/06/16 11:27:37;;;;;;;2.03;2.03;;;;;;;;;;4938220;28;20465;-89
2022/06/16 11:30:12;;;;;;;3.13;2.53;;;;;;;;;;4977619;28;20456;-88
2022/06/16 11:32:55;;;;;;;2.13;2.03;;;33.90;56.30;;;;;;4957488;28;20428;-92
2022/06/16 11:35:26;;;;;;;2.20;2.10;;;;;;;;;;4991336;28;20428;-90
2022/06/16 11:38:00;;;;;;;2.10;2.10;;;35.20;55.10;;;;;;4976325;28;20444;-93
2022/06/16 11:41:27;;;;;;;1.93;1.93;;;35.50;52.80;;;;;;4971153;28;20495;-90
2022/06/16 11:44:38;;;;;;;1.90;1.90;;;35.30;54.60;;;;;;4964884;28;20441;-91
2022/06/16 11:47:11;;;;;;;2.77;2.20;;;;;;;;;;4981656;28;20417;-93
2022/06/16 11:49:41;;;;;;;2.10;2.00;;;;;;;;;;4970262;28;20433;-90
2022/06/16 11:52:19;;;;;;;2.13;2.10;;;;;;;;;;4971118;29;20580;-94
2022/06/16 11:54:53;;;;;;;2.83;2.20;;;;;;;;;;5000259;28;20477;-94
2022/06/16 11:57:52;;;;;;;2.30;2.00;;;;;;;;;;5043709;23;20508;-94
2022/06/16 12:00:17;;;;;;;2.77;2.57;;;;;;;;;;4974552;28;20486;-93
2022/06/16 12:03:08;;;;;;;2.10;2.00;;;36.80;51.60;;;;;;4993371;28;20458;-95
2022/06/16 12:06:52;;;;;;;2.20;2.10;;;36.30;51.70;;;;;;5172721;23;20471;-96
2022/06/16 12:09:50;;;;;;;2.20;2.20;;;36.00;55.20;;;;;;4956218;29;21119;-92
2022/06/16 12:12:25;;;;;;;3.27;3.07;;;;;;;;;;4951544;29;20510;-95
2022/06/16 12:15:13;;;;;;;3.13;3.03;;;;;;;;;;4967186;29;20459;-95
2022/06/16 12:17:52;;;;;;;2.07;1.97;;;;;;;;;;4998099;28;20476;-92
2022/06/16 12:20:40;;;;;;;2.90;2.70;;;;;;;;;;5004322;28;20433;-93
2022/06/16 12:23:45;;;;;;;2.70;2.60;;;;;;;;;;4997180;28;21069;-94
2022/06/16 12:29:22;;;;;;;2.90;2.80;;;;;;;;;;5045072;22;20479;-93
2022/06/16 12:32:20;;;;;;;2.17;2.17;;;;;;;;;;4997161;28;20470;-94
2022/06/16 12:35:09;;;;;;;1.80;1.80;;;;;;;;;;5018578;28;20446;-96
2022/06/16 12:37:38;;;;;;;1.93;1.93;;;;;;;;;;4993896;28;20502;-95
2022/06/16 12:40:13;;;;;;;2.03;1.93;;;;;;;;;;4993992;28;20451;-94
2022/06/16 12:45:40;;;;;;;2.40;2.30;;;;;;;;;;5069267;22;20478;-92
2022/06/16 12:48:13;;;;;;;2.60;2.50;;;;;;;;;;5012315;28;20662;-91
2022/06/16 12:50:42;;;;;;;2.20;2.10;;;;;;;;;;5013936;28;20747;-95
2022/06/16 12:53:35;;;;;;;2.20;2.20;;;;;;;;;;5007675;28;20447;-94
2022/06/16 12:56:15;;;;;;;2.20;2.10;;;;;;;;;;4972167;28;20448;-89
2022/06/16 12:59:06;;;;;;;2.20;2.20;;;;;;;;;;4995199;28;20439;-92
2022/06/16 13:01:36;;;;;;;2.07;2.07;;;;;;;;;;5010647;28;20476;-95
2022/06/16 13:04:07;;;;;;;2.40;2.40;;;;;;;;;;4995803;28;20523;-95
2022/06/16 13:06:35;;;;;;;2.63;2.40;;;;;;;;;;5008484;28;20411;-94
2022/06/16 13:09:04;;;;;;;2.37;2.20;;;;;;;;;;4993552;28;20460;-92
2022/06/16 13:11:42;;;;;;;2.00;1.90;;;;;;;;;;5015489;28;20516;-91
2022/06/16 13:14:16;;;;;;;2.23;2.20;;;;;;;;;;5145732;23;20435;-94
2022/06/16 13:16:50;;;;;;;2.60;2.43;;;;;;;;;;5031656;28;20491;-94
2022/06/16 13:19:21;;;;;;;2.70;2.63;;;;;;;;;;5098348;23;20485;-95
2022/06/16 13:23:01;;;;;;;2.20;2.20;;;35.00;51.10;;;;;;4992909;28;20529;-93
2022/06/16 13:25:55;;;;;;;2.53;2.37;;;34.60;49.20;;;;;;4971441;28;20438;-94
2022/06/16 13:31:13;;;;;;;3.40;2.60;;;;;;;;;;5495930;22;20893;-92
2022/06/16 13:33:45;;;;;;;2.70;2.60;;;32.50;51.30;;;;;;4993076;28;20432;-92
2022/06/16 13:36:41;;;;;;;3.60;3.50;;;33.10;52.40;;;;;;4986709;23;10002306;-94
2022/06/16 13:39:09;;;;;;;2.57;2.50;;;34.30;51.90;;;;;;5040502;28;20259;-95
2022/06/16 13:50:45;;;;;;;2.60;2.50;;;;;;;;;;5249962;22;20494;-92
2022/06/16 13:58:53;;;;;;;4.40;4.10;;;33.10;53.80;;;;;;4522822;26;20581;-94
2022/06/16 14:04:17;;;;;;;4.00;3.43;;;34.30;52.50;;;;;;5123129;22;20487;-93
2022/06/16 14:07:16;;;;;;;4.43;4.20;;;34.90;52.70;;;;;;4991410;28;20421;-91
2022/06/16 14:10:23;;;;;;;2.57;2.47;;;35.00;52.00;;;;;;4961380;28;20881;-90
2022/06/16 14:12:55;;;;;;;3.07;2.97;;;35.10;52.10;;;;;;4981646;28;20488;-93
2022/06/16 14:15:45;;;;;;;2.40;2.30;;;34.70;49.60;;;;;;4989078;28;20445;-92
2022/06/16 14:18:17;;;;;;;3.57;3.30;;;34.90;52.80;;;;;;5000172;28;20452;-91
2022/06/16 14:20:46;;;;;;;3.10;2.80;;;35.20;52.00;;;;;;4978614;28;20468;-90
2022/06/16 14:23:27;;;;;;;6.83;2.63;;;34.60;52.60;;;;;;4964080;28;20441;-91
2022/06/16 14:25:58;;;;;;;2.67;2.57;;;34.40;52.80;;;;;;4957447;28;20838;-91
2022/06/16 14:28:29;;;;;;;3.07;2.83;;;34.40;52.80;;;;;;4947360;28;20970;-91
2022/06/16 14:31:19;;;;;;;4.27;4.07;;;34.30;52.90;;;;;;4951598;28;20521;-92
2022/06/16 14:34:01;;;;;;;2.80;2.70;;;34.70;50.40;;;;;;4960024;28;20703;-92
2022/06/16 14:36:47;;;;;;;2.20;2.10;;;35.30;50.70;;;;;;4964518;28;20824;-89
2022/06/16 14:39:49;;;;;;;3.87;3.77;;;34.80;52.80;;;;;;4954116;28;20437;-91
2022/06/16 14:42:25;;;;;;;3.97;3.87;;;35.10;51.20;;;;;;4969192;28;20509;-92
2022/06/16 14:44:56;;;;;;;4.27;4.03;;;34.90;53.30;;;;;;4957600;28;20612;-92
2022/06/16 14:47:42;;;;;;;5.20;5.00;;;34.70;53.40;;;;;;4967605;28;20422;-88
2022/06/16 14:50:15;;;;;;;3.10;2.90;;;34.20;53.90;;;;;;4963510;28;20931;-91
2022/06/16 14:52:45;;;;;;;3.00;2.90;;;32.10;53.70;;;;;;4946417;29;20490;-92
2022/06/16 14:55:18;;;;;;;2.73;2.63;;;32.10;52.90;;;;;;4965961;28;20459;-91
2022/06/16 14:57:47;;;;;;;3.50;3.20;;;31.20;55.10;;;;;;4945429;28;20449;-89
2022/06/16 15:00:24;;;;;;;2.13;2.13;;;30.20;55.70;;;;;;4967174;28;20456;-90
2022/06/16 15:02:55;;;;;;;3.07;2.97;;;29.40;56.80;;;;;;4982327;28;20539;-89
2022/06/16 15:05:21;;;;;;;3.53;3.43;;;29.20;56.70;;;;;;4956114;28;20504;-87
2022/06/16 15:07:49;;;;;;;2.70;2.60;;;28.50;57.80;;;;;;4959680;28;20648;-92
2022/06/16 15:10:19;;;;;;;2.80;2.63;;;28.50;57.80;;;;;;4969651;28;20464;-91
2022/06/16 15:12:45;;;;;;;3.13;3.00;;;;;;;;;;4970366;28;20505;-88
2022/06/16 15:15:17;;;;;;;5.30;3.00;;;28.10;55.70;;;;;;4975528;28;20856;-91
2022/06/16 15:20:30;;;;;;;3.30;3.10;;;;;;;;;;4977013;28;20797;-91
2022/06/16 15:22:57;;;;;;;3.00;2.90;;;;;;;;;;4977696;28;20929;-89
2022/06/16 15:25:33;;;;;;;3.70;3.50;;;28.20;56.50;;;;;;4971810;28;20444;-91
2022/06/16 15:28:10;;;;;;;4.77;4.67;;;28.10;58.50;;;;;;4940658;29;20862;-90
2022/06/16 15:30:36;;;;;;;7.20;6.60;;;;;;;;;;4955695;28;20462;-91
2022/06/16 15:36:15;;;;;;;3.10;2.90;;;27.50;59.00;;;;;;4980972;28;20476;-88
2022/06/16 15:38:45;;;;;;;3.60;3.30;;;27.50;59.10;;;;;;4976993;28;20440;-88
2022/06/16 15:41:29;;;;;;;8.10;7.50;;;27.50;59.20;;;;;;4975600;28;20472;-89
2022/06/16 15:44:13;;;;;;;3.00;2.80;;;27.00;59.30;;;;;;4949527;28;20487;-93
2022/06/16 15:46:58;;;;;;;2.43;2.33;;;;;;;;;;4983843;28;20449;-91
2022/06/16 15:49:27;;;;;;;3.00;2.80;;;;;;;;;;4972522;28;20440;-90
2022/06/16 15:51:53;;;;;;;3.23;3.13;;;;;;;;;;4978909;28;20469;-89
2022/06/16 15:54:28;;;;;;;2.43;2.33;;;;;;;;;;4965757;28;20438;-90
2022/06/16 15:56:58;;;;;;;2.83;2.83;;;;;;;;;;4984602;28;20437;-90
2022/06/16 15:59:25;;;;;;;2.57;2.57;;;;;;;;;;4990740;28;20583;-91
2022/06/16 16:01:55;;;;;;;2.53;2.43;;;27.00;59.50;;;;;;4979365;28;20601;-89
2022/06/16 16:04:29;;;;;;;2.90;2.80;;;27.20;59.50;;;;;;4968006;28;20457;-88
2022/06/16 16:06:55;;;;;;;3.50;3.30;;;;;;;;;;4956353;29;20436;-88
2022/06/16 16:09:24;;;;;;;2.97;2.70;;;;;;;;;;4992097;28;20433;-90
2022/06/16 16:11:56;;;;;;;2.87;2.70;;;;;;;;;;4989028;28;20927;-88
2022/06/16 16:14:24;;;;;;;2.50;2.50;;;;;;;;;;5010235;28;20412;-90
2022/06/16 16:17:04;;;;;;;2.50;2.40;;;27.00;59.80;;;;;;4991387;28;20433;-89
2022/06/16 16:19:34;;;;;;;3.70;3.60;;;;;;;;;;4996075;28;20439;-87
2022/06/16 16:22:10;;;;;;;2.40;2.30;;;;;;;;;;4971555;28;20474;-89
2022/06/16 16:24:43;;;;;;;2.97;2.77;;;26.90;60.50;;;;;;5009697;28;20404;-89
2022/06/16 16:29:58;;;;;;;2.80;2.70;;;;;;;;;;5056121;22;20478;-89
2022/06/16 16:32:34;;;;;;;2.73;2.63;;;26.90;60.90;;;;;;4992137;28;20440;-88
2022/06/16 16:35:04;;;;;;;2.60;2.50;;;;;;;;;;5011382;28;20442;-91
2022/06/16 16:37:32;;;;;;;4.13;3.70;;;;;;;;;;5046692;28;20465;-89
2022/06/16 16:40:07;;;;;;;2.97;2.87;;;26.80;62.00;;;;;;5020307;28;20459;-86
2022/06/16 16:45:28;;;;;;;3.60;3.30;;;;;;;;;;5020861;28;20427;-90
2022/06/16 16:48:17;;;;;;;2.67;2.57;;;26.60;58.00;;;;;;5017431;28;20475;-87
2022/06/16 16:50:45;;;;;;;3.63;3.63;;;;;;;;;;4995146;28;20420;-89
2022/06/16 16:53:14;;;;;;;3.70;3.50;;;;;;;;;;5035023;28;20923;-90
2022/06/16 16:55:41;;;;;;;3.93;3.20;;;;;;;;;;5024358;28;20492;-90
2022/06/16 16:58:07;;;;;;;4.97;4.50;;;;;;;;;;5032865;28;20443;-91
2022/06/16 17:00:36;;;;;;;3.10;3.00;;;;;;;;;;4997597;28;20427;-90
2022/06/16 17:03:06;;;;;;;2.80;2.70;;;;;;;;;;5018510;28;20487;-90
2022/06/16 17:05:32;;;;;;;3.80;3.50;;;;;;;;;;5024454;28;20432;-89
2022/06/16 17:07:58;;;;;;;2.97;2.87;;;;;;;;;;5033269;28;20530;-88
2022/06/16 17:10:24;;;;;;;2.50;2.40;;;;;;;;;;5038780;28;20421;-90
2022/06/16 17:13:02;;;;;;;3.00;2.70;;;26.00;61.80;;;;;;5023983;28;20508;-88
2022/06/16 17:15:31;;;;;;;4.47;2.97;;;;;;;;;;5345771;22;20438;-88
2022/06/16 17:23:09;;;;;;;3.37;3.27;;;;;;;;;;5778546;23;20477;-88
2022/06/16 17:25:37;;;;;;;3.30;3.20;;;;;;;;;;5201075;22;20451;-88
2022/06/16 17:30:39;;;;;;;2.60;2.50;;;;;;;;;;5212106;22;20491;-91
2022/06/16 17:33:05;;;;;;;3.60;3.30;;;;;;;;;;5037712;28;20439;-90
2022/06/16 17:35:34;;;;;;;6.30;2.70;;;;;;;;;;5019599;28;20514;-91
2022/06/16 17:38:01;;;;;;;2.70;2.70;;;;;;;;;;5020658;28;20440;-87
2022/06/16 17:40:37;;;;;;;3.60;3.30;;;;;;;;;;5020584;28;20431;-90
2022/06/16 17:43:03;;;;;;;3.57;3.37;;;;;;;;;;4994802;28;20510;-89
2022/06/16 17:45:30;;;;;;;2.67;2.57;;;;;;;;;;4998227;28;20492;-89
2022/06/16 17:47:56;;;;;;;2.70;2.60;;;;;;;;;;4996855;28;20444;-90